sensor_id;sensor_type;location;lat;lon;timestamp;pressure;altitude;pressure_sealevel;temperature;humidity
9460;BME280;4768;42.664;23.240;2023-02-18T00:01:33;169167.63;;;8.43;98.57
9460;BME280;4768;42.664;23.240;2023-02-18T00:04:00;169137.00;;;8.32;99.64
9460;BME280;4768;42.664;23.240;2023-02-18T00:06:28;169139.69;;;8.33;98.79
9460;BME280;4768;42.664;23.240;2023-02-18T00:08:56;169156.97;;;8.39;97.17
9460;BME280;4768;42.664;23.240;2023-02-18T00:11:29;169106.41;;;8.20;98.43
9460;BME280;4768;42.664;23.240;2023-02-18T00:13:58;169031.88;;;7.93;100.00
9460;BME280;4768;42.664;23.240;2023-02-18T00:16:26;168990.63;;;7.77;100.00
9460;BME280;4768;42.664;23.240;2023-02-18T00:18:54;168997.28;;;7.80;100.00
9460;BME280;4768;42.664;23.240;2023-02-18T00:21:21;169013.25;;;7.86;100.00
9460;BME280;4768;42.664;23.240;2023-02-18T00:23:48;168966.69;;;7.68;100.00
9460;BME280;4768;42.664;23.240;2023-02-18T00:26:15;168904.16;;;7.45;100.00
9460;BME280;4768;42.664;23.240;2023-02-18T00:28:44;168949.41;;;7.62;100.00
9460;BME280;4768;42.664;23.240;2023-02-18T00:31:14;168870.94;;;7.33;100.00
9460;BME280;4768;42.664;23.240;2023-02-18T00:33:41;168832.38;;;7.19;100.00
9460;BME280;4768;42.664;23.240;2023-02-18T00:36:10;168579.84;;;6.24;100.00
9460;BME280;4768;42.664;23.240;2023-02-18T00:38:37;168073.94;;;4.36;100.00
9460;BME280;4768;42.664;23.240;2023-02-18T00:41:05;167975.81;;;3.99;100.00
9460;BME280;4768;42.664;23.240;2023-02-18T00:43:32;168069.97;;;4.34;100.00
9460;BME280;4768;42.664;23.240;2023-02-18T00:46:00;168149.63;;;4.64;100.00
9460;BME280;4768;42.664;23.240;2023-02-18T00:48:27;168146.94;;;4.63;100.00
9460;BME280;4768;42.664;23.240;2023-02-18T00:50:54;167910.81;;;3.75;100.00
9460;BME280;4768;42.664;23.240;2023-02-18T00:53:20;167828.59;;;3.44;100.00
9460;BME280;4768;42.664;23.240;2023-02-18T00:55:47;167741.09;;;3.12;100.00
9460;BME280;4768;42.664;23.240;2023-02-18T00:58:14;167778.25;;;3.26;100.00
9460;BME280;4768;42.664;23.240;2023-02-18T01:00:41;167767.63;;;3.22;100.00
9460;BME280;4768;42.664;23.240;2023-02-18T01:03:10;167741.09;;;3.12;100.00
9460;BME280;4768;42.664;23.240;2023-02-18T01:05:37;167719.91;;;3.04;100.00
9460;BME280;4768;42.664;23.240;2023-02-18T01:08:05;167737.13;;;3.10;100.00
9460;BME280;4768;42.664;23.240;2023-02-18T01:10:32;167844.50;;;3.50;100.00
9460;BME280;4768;42.664;23.240;2023-02-18T01:13:00;167859.09;;;3.56;100.00
9460;BME280;4768;42.664;23.240;2023-02-18T01:15:28;167896.19;;;3.70;100.00
9460;BME280;4768;42.664;23.240;2023-02-18T01:17:55;168077.94;;;4.37;100.00
9460;BME280;4768;42.664;23.240;2023-02-18T01:20:23;168028.84;;;4.19;100.00
9460;BME280;4768;42.664;23.240;2023-02-18T01:22:50;167959.91;;;3.93;100.00
9460;BME280;4768;42.664;23.240;2023-02-18T01:25:17;167840.50;;;3.49;100.00
9460;BME280;4768;42.664;23.240;2023-02-18T01:27:44;167807.38;;;3.36;100.00
9460;BME280;4768;42.664;23.240;2023-02-18T01:30:13;167833.91;;;3.46;100.00
9460;BME280;4768;42.664;23.240;2023-02-18T01:32:40;167808.69;;;3.37;100.00
9460;BME280;4768;42.664;23.240;2023-02-18T01:35:11;167762.34;;;3.20;100.00
9460;BME280;4768;42.664;23.240;2023-02-18T01:37:39;167637.72;;;2.73;100.00
9460;BME280;4768;42.664;23.240;2023-02-18T01:40:07;167646.97;;;2.77;100.00
9460;BME280;4768;42.664;23.240;2023-02-18T01:42:35;167974.47;;;3.99;100.00
9460;BME280;4768;42.664;23.240;2023-02-18T01:45:38;167906.81;;;3.74;100.00
9460;BME280;4768;42.664;23.240;2023-02-18T01:48:10;167848.47;;;3.52;100.00
9460;BME280;4768;42.664;23.240;2023-02-18T01:50:41;167648.34;;;2.77;100.00
9460;BME280;4768;42.664;23.240;2023-02-18T01:53:12;167636.41;;;2.73;100.00
9460;BME280;4768;42.664;23.240;2023-02-18T01:55:40;167658.91;;;2.81;100.00
9460;BME280;4768;42.664;23.240;2023-02-18T01:58:07;167632.44;;;2.71;100.00
9460;BME280;4768;42.664;23.240;2023-02-18T02:00:34;167588.72;;;2.55;100.00
9460;BME280;4768;42.664;23.240;2023-02-18T02:03:01;167613.88;;;2.64;100.00
9460;BME280;4768;42.664;23.240;2023-02-18T02:05:30;167603.25;;;2.60;100.00
9460;BME280;4768;42.664;23.240;2023-02-18T02:07:57;158015.75;;;2.51;100.00
9460;BME280;4768;42.664;23.240;2023-02-18T02:10:32;143523.72;;;2.44;100.00
9460;BME280;4768;42.664;23.240;2023-02-18T02:13:06;137159.75;;;2.31;100.00
9460;BME280;4768;42.664;23.240;2023-02-18T02:15:43;128021.44;;;2.27;100.00
9460;BME280;4768;42.664;23.240;2023-02-18T02:18:20;120307.19;;;2.23;100.00
9460;BME280;4768;42.664;23.240;2023-02-18T02:24:22;142853.78;;;2.59;100.00
9460;BME280;4768;42.664;23.240;2023-02-18T02:27:20;152049.22;;;2.69;100.00
9460;BME280;4768;42.664;23.240;2023-02-18T02:30:20;143517.00;;;2.41;100.00
9460;BME280;4768;42.664;23.240;2023-02-18T02:33:17;153538.69;;;3.00;100.00
9460;BME280;4768;42.664;23.240;2023-02-18T02:35:53;167823.28;;;3.42;100.00
9460;BME280;4768;42.664;23.240;2023-02-18T02:38:29;167804.72;;;3.35;100.00
9460;BME280;4768;42.664;23.240;2023-02-18T02:41:09;167991.75;;;4.05;100.00
9460;BME280;4768;42.664;23.240;2023-02-18T02:43:47;168283.69;;;5.14;100.00
9460;BME280;4768;42.664;23.240;2023-02-18T02:46:21;168076.63;;;4.37;100.00
9460;BME280;4768;42.664;23.240;2023-02-18T02:48:55;167961.22;;;3.94;100.00
9460;BME280;4768;42.664;23.240;2023-02-18T02:51:29;167861.75;;;3.57;100.00
9460;BME280;4768;42.664;23.240;2023-02-18T02:54:08;167661.56;;;2.82;100.00
9460;BME280;4768;42.664;23.240;2023-02-18T02:56:36;167851.13;;;3.53;100.00
9460;BME280;4768;42.664;23.240;2023-02-18T02:59:06;168211.97;;;4.87;100.00
9460;BME280;4768;42.664;23.240;2023-02-18T03:01:40;167888.25;;;3.67;100.00
9460;BME280;4768;42.664;23.240;2023-02-18T03:04:22;167529.06;;;2.33;100.00
9460;BME280;4768;42.664;23.240;2023-02-18T03:07:29;167432.38;;;1.96;100.00
9460;BME280;4768;42.664;23.240;2023-02-18T03:10:15;124461.41;;;1.99;100.00
9460;BME280;4768;42.664;23.240;2023-02-18T03:12:46;97933.47;;;1.89;100.00
9460;BME280;4768;42.664;23.240;2023-02-18T03:15:22;83019.09;;;1.85;100.00
9460;BME280;4768;42.664;23.240;2023-02-18T03:17:54;72654.31;;;1.84;100.00
9460;BME280;4768;42.664;23.240;2023-02-18T03:20:26;64725.00;;;1.78;100.00
9460;BME280;4768;42.664;23.240;2023-02-18T03:22:57;71305.06;;;2.12;100.00
9460;BME280;4768;42.664;23.240;2023-02-18T03:25:25;76130.88;;;2.06;100.00
9460;BME280;4768;42.664;23.240;2023-02-18T03:27:55;81351.13;;;2.36;100.00
9460;BME280;4768;42.664;23.240;2023-02-18T03:30:26;85118.28;;;2.03;100.00
9460;BME280;4768;42.664;23.240;2023-02-18T03:32:57;86876.03;;;2.23;100.00
9460;BME280;4768;42.664;23.240;2023-02-18T03:35:26;91754.69;;;2.39;100.00
9460;BME280;4768;42.664;23.240;2023-02-18T03:37:58;146625.38;;;3.66;100.00
9460;BME280;4768;42.664;23.240;2023-02-18T03:40:28;167873.69;;;3.61;100.00
9460;BME280;4768;42.664;23.240;2023-02-18T03:42:56;167717.25;;;3.03;100.00
9460;BME280;4768;42.664;23.240;2023-02-18T03:45:23;167627.09;;;2.69;100.00
9460;BME280;4768;42.664;23.240;2023-02-18T03:47:50;167900.19;;;3.71;100.00
9460;BME280;4768;42.664;23.240;2023-02-18T03:50:17;167707.97;;;2.99;100.00
9460;BME280;4768;42.664;23.240;2023-02-18T03:52:44;165115.19;;;1.99;100.00
9460;BME280;4768;42.664;23.240;2023-02-18T03:55:12;93733.78;;;1.66;100.00
9460;BME280;4768;42.664;23.240;2023-02-18T03:57:38;79240.19;;;2.06;100.00
9460;BME280;4768;42.664;23.240;2023-02-18T04:00:07;77859.97;;;2.08;100.00
9460;BME280;4768;42.664;23.240;2023-02-18T04:02:34;80286.94;;;2.14;100.00
9460;BME280;4768;42.664;23.240;2023-02-18T04:05:01;75791.06;;;2.11;100.00
9460;BME280;4768;42.664;23.240;2023-02-18T04:07:28;77180.22;;;2.18;100.00
9460;BME280;4768;42.664;23.240;2023-02-18T04:09:55;75444.03;;;2.10;100.00
9460;BME280;4768;42.664;23.240;2023-02-18T04:12:23;92824.19;;;2.59;100.00
9460;BME280;4768;42.664;23.240;2023-02-18T04:14:50;100084.88;;;2.32;100.00
9460;BME280;4768;42.664;23.240;2023-02-18T04:17:16;95540.84;;;2.16;100.00
9460;BME280;4768;42.664;23.240;2023-02-18T04:19:43;83027.75;;;1.92;100.00
9460;BME280;4768;42.664;23.240;2023-02-18T04:22:10;75082.19;;;1.95;100.00
9460;BME280;4768;42.664;23.240;2023-02-18T04:24:37;87307.22;;;2.87;100.00
9460;BME280;4768;42.664;23.240;2023-02-18T04:27:03;167849.81;;;3.52;100.00
9460;BME280;4768;42.664;23.240;2023-02-18T04:29:32;167953.25;;;3.91;100.00
9460;BME280;4768;42.664;23.240;2023-02-18T04:31:58;168227.88;;;4.93;100.00
9460;BME280;4768;42.664;23.240;2023-02-18T04:34:25;168298.25;;;5.20;100.00
9460;BME280;4768;42.664;23.240;2023-02-18T04:36:52;168352.69;;;5.40;100.00
9460;BME280;4768;42.664;23.240;2023-02-18T04:39:18;168350.03;;;5.39;100.00
9460;BME280;4768;42.664;23.240;2023-02-18T04:41:45;168385.88;;;5.52;100.00
9460;BME280;4768;42.664;23.240;2023-02-18T04:44:12;168420.41;;;5.65;100.00
9460;BME280;4768;42.664;23.240;2023-02-18T04:46:40;168411.13;;;5.62;100.00
9460;BME280;4768;42.664;23.240;2023-02-18T04:49:07;168482.91;;;5.88;100.00
9460;BME280;4768;42.664;23.240;2023-02-18T04:51:33;168703.47;;;6.71;100.00
9460;BME280;4768;42.664;23.240;2023-02-18T04:54:02;168715.44;;;6.75;100.00
9460;BME280;4768;42.664;23.240;2023-02-18T04:56:28;168670.22;;;6.58;100.00
9460;BME280;4768;42.664;23.240;2023-02-18T04:58:55;168609.09;;;6.35;100.00
9460;BME280;4768;42.664;23.240;2023-02-18T05:01:22;168083.28;;;4.39;100.00
9460;BME280;4768;42.664;23.240;2023-02-18T05:03:50;167847.16;;;3.51;100.00
9460;BME280;4768;42.664;23.240;2023-02-18T05:06:16;167649.66;;;2.78;100.00
9460;BME280;4768;42.664;23.240;2023-02-18T05:08:43;167531.72;;;2.34;100.00
9460;BME280;4768;42.664;23.240;2023-02-18T05:11:10;167436.38;;;1.98;100.00
9460;BME280;4768;42.664;23.240;2023-02-18T05:13:36;132501.03;;;1.88;100.00
9460;BME280;4768;42.664;23.240;2023-02-18T05:16:04;98275.75;;;1.86;100.00
9460;BME280;4768;42.664;23.240;2023-02-18T05:18:30;74718.94;;;1.79;100.00
9460;BME280;4768;42.664;23.240;2023-02-18T05:20:58;62319.53;;;1.80;100.00
9460;BME280;4768;42.664;23.240;2023-02-18T05:23:25;55449.91;;;1.81;100.00
9460;BME280;4768;42.664;23.240;2023-02-18T05:25:53;51677.63;;;1.81;100.00
9460;BME280;4768;42.664;23.240;2023-02-18T05:28:20;48940.53;;;1.87;100.00
9460;BME280;4768;42.664;23.240;2023-02-18T05:30:46;53759.25;;;2.13;100.00
9460;BME280;4768;42.664;23.240;2023-02-18T05:33:13;60633.91;;;2.18;100.00
9460;BME280;4768;42.664;23.240;2023-02-18T05:35:40;65800.47;;;2.23;100.00
9460;BME280;4768;42.664;23.240;2023-02-18T05:38:08;67874.59;;;2.30;100.00
9460;BME280;4768;42.664;23.240;2023-02-18T05:40:35;61322.19;;;2.19;100.00
9460;BME280;4768;42.664;23.240;2023-02-18T05:43:02;95014.75;;;3.33;100.00
9460;BME280;4768;42.664;23.240;2023-02-18T05:45:29;148245.00;;;3.03;100.00
9460;BME280;4768;42.664;23.240;2023-02-18T05:47:56;122471.47;;;2.57;100.00
9460;BME280;4768;42.664;23.240;2023-02-18T05:50:22;138754.50;;;3.17;100.00
9460;BME280;4768;42.664;23.240;2023-02-18T05:52:49;168018.22;;;4.15;100.00
9460;BME280;4768;42.664;23.240;2023-02-18T05:55:17;168470.94;;;5.84;100.00
9460;BME280;4768;42.664;23.240;2023-02-18T05:57:44;168417.75;;;5.64;100.00
9460;BME280;4768;42.664;23.240;2023-02-18T06:00:11;168618.41;;;6.39;100.00
9460;BME280;4768;42.664;23.240;2023-02-18T06:02:38;168848.34;;;7.24;100.00
9460;BME280;4768;42.664;23.240;2023-02-18T06:05:06;168641.00;;;6.47;100.00
9460;BME280;4768;42.664;23.240;2023-02-18T06:07:33;167913.47;;;3.76;100.00
9460;BME280;4768;42.664;23.240;2023-02-18T06:09:59;167680.16;;;2.89;100.00
9460;BME280;4768;42.664;23.240;2023-02-18T06:12:28;167629.78;;;2.70;100.00
9460;BME280;4768;42.664;23.240;2023-02-18T06:14:54;167627.09;;;2.69;100.00
9460;BME280;4768;42.664;23.240;2023-02-18T06:17:21;167645.66;;;2.76;100.00
9460;BME280;4768;42.664;23.240;2023-02-18T06:19:48;167654.94;;;2.80;100.00
9460;BME280;4768;42.664;23.240;2023-02-18T06:22:15;138262.16;;;2.53;100.00
9460;BME280;4768;42.664;23.240;2023-02-18T06:24:41;115124.34;;;2.58;100.00
9460;BME280;4768;42.664;23.240;2023-02-18T06:27:08;100833.50;;;2.66;100.00
9460;BME280;4768;42.664;23.240;2023-02-18T06:29:36;107512.28;;;3.00;100.00
9460;BME280;4768;42.664;23.240;2023-02-18T06:32:03;152992.25;;;3.66;100.00
9460;BME280;4768;42.664;23.240;2023-02-18T06:34:30;167882.97;;;3.65;100.00
9460;BME280;4768;42.664;23.240;2023-02-18T06:36:56;168170.84;;;4.72;100.00
9460;BME280;4768;42.664;23.240;2023-02-18T06:39:23;168001.00;;;4.09;100.00
9460;BME280;4768;42.664;23.240;2023-02-18T06:41:50;167917.44;;;3.78;100.00
9460;BME280;4768;42.664;23.240;2023-02-18T06:44:17;168226.56;;;4.93;100.00
9460;BME280;4768;42.664;23.240;2023-02-18T06:46:45;168587.81;;;6.27;100.00
9460;BME280;4768;42.664;23.240;2023-02-18T06:49:11;168869.63;;;7.32;100.00
9460;BME280;4768;42.664;23.240;2023-02-18T06:51:38;168889.59;;;7.40;100.00
9460;BME280;4768;42.664;23.240;2023-02-18T06:54:05;168933.47;;;7.56;100.00
9460;BME280;4768;42.664;23.240;2023-02-18T06:56:32;169014.56;;;7.86;100.00
9460;BME280;4768;42.664;23.240;2023-02-18T06:58:58;169038.50;;;7.95;100.00
9460;BME280;4768;42.664;23.240;2023-02-18T07:01:25;169049.16;;;7.99;100.00
9460;BME280;4768;42.664;23.240;2023-02-18T07:03:53;169147.66;;;8.36;100.00
9460;BME280;4768;42.664;23.240;2023-02-18T07:06:20;169179.59;;;8.48;100.00
9460;BME280;4768;42.664;23.240;2023-02-18T07:08:47;169103.78;;;8.19;100.00
9460;BME280;4768;42.664;23.240;2023-02-18T07:11:13;169047.84;;;7.99;100.00
9460;BME280;4768;42.664;23.240;2023-02-18T07:13:40;169042.50;;;7.97;100.00
9460;BME280;4768;42.664;23.240;2023-02-18T07:16:07;169053.16;;;8.01;100.00
9460;BME280;4768;42.664;23.240;2023-02-18T07:18:33;169111.75;;;8.22;100.00
9460;BME280;4768;42.664;23.240;2023-02-18T07:21:02;169099.78;;;8.18;100.00
9460;BME280;4768;42.664;23.240;2023-02-18T07:23:29;169095.78;;;8.17;100.00
9460;BME280;4768;42.664;23.240;2023-02-18T07:26:02;169150.34;;;8.37;100.00
9460;BME280;4768;42.664;23.240;2023-02-18T07:28:29;169214.22;;;8.61;99.45
9460;BME280;4768;42.664;23.240;2023-02-18T07:30:56;169187.59;;;8.51;99.31
9460;BME280;4768;42.664;23.240;2023-02-18T07:33:22;169179.59;;;8.48;99.43
9460;BME280;4768;42.664;23.240;2023-02-18T07:35:52;169216.84;;;8.62;98.37
9460;BME280;4768;42.664;23.240;2023-02-18T07:38:21;169255.44;;;8.76;96.75
9460;BME280;4768;42.664;23.240;2023-02-18T07:40:49;169330.00;;;9.04;94.79
9460;BME280;4768;42.664;23.240;2023-02-18T07:43:16;169371.25;;;9.19;92.06
9460;BME280;4768;42.664;23.240;2023-02-18T07:45:43;168708.78;;;6.72;100.00
9460;BME280;4768;42.664;23.240;2023-02-18T07:48:10;168335.44;;;5.33;100.00
9460;BME280;4768;42.664;23.240;2023-02-18T07:50:39;168307.56;;;5.23;100.00
9460;BME280;4768;42.664;23.240;2023-02-18T07:53:07;168269.06;;;5.09;100.00
9460;BME280;4768;42.664;23.240;2023-02-18T07:55:36;168351.38;;;5.39;100.00
9460;BME280;4768;42.664;23.240;2023-02-18T07:58:15;168407.16;;;5.60;100.00
9460;BME280;4768;42.664;23.240;2023-02-18T08:00:42;168557.28;;;6.16;100.00
9460;BME280;4768;42.664;23.240;2023-02-18T08:03:08;168553.31;;;6.15;100.00
9460;BME280;4768;42.664;23.240;2023-02-18T08:05:35;168448.34;;;5.76;100.00
9460;BME280;4768;42.664;23.240;2023-02-18T08:08:02;168439.03;;;5.72;100.00
9460;BME280;4768;42.664;23.240;2023-02-18T08:10:29;168432.38;;;5.70;100.00
9460;BME280;4768;42.664;23.240;2023-02-18T08:12:57;168433.72;;;5.70;100.00
9460;BME280;4768;42.664;23.240;2023-02-18T08:15:24;168498.84;;;5.94;100.00
9460;BME280;4768;42.664;23.240;2023-02-18T08:17:51;168459.00;;;5.79;100.00
9460;BME280;4768;42.664;23.240;2023-02-18T08:20:18;168457.69;;;5.79;100.00
9460;BME280;4768;42.664;23.240;2023-02-18T08:22:45;168448.34;;;5.76;100.00
9460;BME280;4768;42.664;23.240;2023-02-18T08:25:11;168521.44;;;6.03;100.00
9460;BME280;4768;42.664;23.240;2023-02-18T08:27:38;168484.22;;;5.89;100.00
9460;BME280;4768;42.664;23.240;2023-02-18T08:30:08;168569.25;;;6.21;100.00
9460;BME280;4768;42.664;23.240;2023-02-18T08:32:35;168655.63;;;6.53;100.00
9460;BME280;4768;42.664;23.240;2023-02-18T08:35:02;168896.19;;;7.42;100.00
9460;BME280;4768;42.664;23.240;2023-02-18T08:37:29;169352.66;;;9.12;100.00
9460;BME280;4768;42.664;23.240;2023-02-18T08:39:55;169559.06;;;9.89;100.00
9460;BME280;4768;42.664;23.240;2023-02-18T08:42:22;169653.69;;;10.24;91.63
9460;BME280;4768;42.664;23.240;2023-02-18T08:44:49;169688.31;;;10.37;88.05
9460;BME280;4768;42.664;23.240;2023-02-18T08:47:17;169733.63;;;10.54;84.70
9460;BME280;4768;42.664;23.240;2023-02-18T08:49:44;169762.94;;;10.64;78.90
9460;BME280;4768;42.664;23.240;2023-02-18T08:52:10;169789.59;;;10.74;77.44
9460;BME280;4768;42.664;23.240;2023-02-18T08:54:37;169372.63;;;9.19;98.63
9460;BME280;4768;42.664;23.240;2023-02-18T08:57:04;168980.03;;;7.73;100.00
9460;BME280;4768;42.664;23.240;2023-02-18T08:59:31;168988.00;;;7.76;100.00
9460;BME280;4768;42.664;23.240;2023-02-18T09:01:57;168906.84;;;7.46;100.00
9460;BME280;4768;42.664;23.240;2023-02-18T09:04:25;168857.66;;;7.28;100.00
9460;BME280;4768;42.664;23.240;2023-02-18T09:06:52;168897.56;;;7.43;100.00
9460;BME280;4768;42.664;23.240;2023-02-18T09:09:21;168897.56;;;7.43;100.00
9460;BME280;4768;42.664;23.240;2023-02-18T09:11:48;168835.06;;;7.20;100.00
9460;BME280;4768;42.664;23.240;2023-02-18T09:14:15;168893.56;;;7.41;100.00
9460;BME280;4768;42.664;23.240;2023-02-18T09:16:42;168908.16;;;7.47;100.00
9460;BME280;4768;42.664;23.240;2023-02-18T09:19:08;168994.59;;;7.79;100.00
9460;BME280;4768;42.664;23.240;2023-02-18T09:21:37;169033.19;;;7.93;100.00
9460;BME280;4768;42.664;23.240;2023-02-18T09:24:04;169026.53;;;7.91;100.00
9460;BME280;4768;42.664;23.240;2023-02-18T09:26:31;169202.25;;;8.56;100.00
9460;BME280;4768;42.664;23.240;2023-02-18T09:28:57;169306.03;;;8.95;100.00
9460;BME280;4768;42.664;23.240;2023-02-18T09:31:25;169381.91;;;9.23;100.00
9460;BME280;4768;42.664;23.240;2023-02-18T09:33:54;169460.50;;;9.52;100.00
9460;BME280;4768;42.664;23.240;2023-02-18T09:36:22;169671.00;;;10.30;100.00
9460;BME280;4768;42.664;23.240;2023-02-18T09:38:50;169842.91;;;10.94;95.43
9460;BME280;4768;42.664;23.240;2023-02-18T09:41:25;169961.56;;;11.38;88.95
9460;BME280;4768;42.664;23.240;2023-02-18T09:43:55;170164.31;;;12.13;75.94
9460;BME280;4768;42.664;23.240;2023-02-18T09:46:26;170357.88;;;12.85;64.11
9460;BME280;4768;42.664;23.240;2023-02-18T09:48:55;170397.91;;;13.00;60.90
9460;BME280;4768;42.664;23.240;2023-02-18T09:51:23;170516.72;;;13.44;58.88
9460;BME280;4768;42.664;23.240;2023-02-18T09:53:51;170551.44;;;13.57;58.09
9460;BME280;4768;42.664;23.240;2023-02-18T09:56:21;170498.00;;;13.37;57.80
9460;BME280;4768;42.664;23.240;2023-02-18T09:58:49;170460.66;;;13.23;56.86
9460;BME280;4768;42.664;23.240;2023-02-18T10:01:20;170407.22;;;13.03;55.37
9460;BME280;4768;42.664;23.240;2023-02-18T10:03:50;170510.03;;;13.42;55.50
9460;BME280;4768;42.664;23.240;2023-02-18T10:06:20;170558.09;;;13.59;53.66
9460;BME280;4768;42.664;23.240;2023-02-18T10:08:50;170607.53;;;13.78;52.74
9460;BME280;4768;42.664;23.240;2023-02-18T10:11:22;170619.53;;;13.82;52.11
9460;BME280;4768;42.664;23.240;2023-02-18T10:13:51;170685.00;;;14.06;51.28
9460;BME280;4768;42.664;23.240;2023-02-18T10:16:21;170678.31;;;14.04;51.02
9460;BME280;4768;42.664;23.240;2023-02-18T10:18:51;170610.16;;;13.79;50.61
9460;BME280;4768;42.664;23.240;2023-02-18T10:21:21;170578.13;;;13.67;49.50
9460;BME280;4768;42.664;23.240;2023-02-18T10:23:56;170682.38;;;14.05;50.88
9460;BME280;4768;42.664;23.240;2023-02-18T10:26:28;170671.63;;;14.01;49.04
9460;BME280;4768;42.664;23.240;2023-02-18T10:28:56;170766.53;;;14.37;48.14
9460;BME280;4768;42.664;23.240;2023-02-18T10:31:27;170799.91;;;14.49;48.89
9460;BME280;4768;42.664;23.240;2023-02-18T10:33:59;170848.00;;;14.67;48.63
9460;BME280;4768;42.664;23.240;2023-02-18T10:36:34;170922.84;;;14.95;47.99
9460;BME280;4768;42.664;23.240;2023-02-18T10:39:20;170889.44;;;14.82;47.09
9460;BME280;4768;42.664;23.240;2023-02-18T10:41:58;170904.13;;;14.88;46.76
9460;BME280;4768;42.664;23.240;2023-02-18T10:44:33;170896.09;;;14.85;46.84
9460;BME280;4768;42.664;23.240;2023-02-18T10:47:12;170936.19;;;14.99;46.74
9460;BME280;4768;42.664;23.240;2023-02-18T10:49:57;170954.91;;;15.06;46.31
9460;BME280;4768;42.664;23.240;2023-02-18T10:52:27;171020.50;;;15.31;46.05
9460;BME280;4768;42.664;23.240;2023-02-18T10:54:58;171044.56;;;15.40;45.54
9460;BME280;4768;42.664;23.240;2023-02-18T10:57:27;171033.84;;;15.36;44.68
9460;BME280;4768;42.664;23.240;2023-02-18T10:59:57;171047.19;;;15.41;45.57
9460;BME280;4768;42.664;23.240;2023-02-18T11:02:26;170950.91;;;15.05;45.03
9460;BME280;4768;42.664;23.240;2023-02-18T11:04:56;170876.06;;;14.77;46.02
9460;BME280;4768;42.664;23.240;2023-02-18T11:07:32;170834.66;;;14.62;48.46
9460;BME280;4768;42.664;23.240;2023-02-18T11:10:09;170844.00;;;14.65;47.31
9460;BME280;4768;42.664;23.240;2023-02-18T11:12:45;170869.41;;;14.75;47.16
9460;BME280;4768;42.664;23.240;2023-02-18T11:15:19;170803.91;;;14.50;46.86
9460;BME280;4768;42.664;23.240;2023-02-18T11:17:49;170834.66;;;14.62;47.48
9460;BME280;4768;42.664;23.240;2023-02-18T11:20:23;170853.38;;;14.69;47.02
9460;BME280;4768;42.664;23.240;2023-02-18T11:22:51;170798.59;;;14.49;46.91
9460;BME280;4768;42.664;23.240;2023-02-18T11:25:19;170829.34;;;14.60;48.48
9460;BME280;4768;42.664;23.240;2023-02-18T11:27:51;170888.09;;;14.82;48.67
9460;BME280;4768;42.664;23.240;2023-02-18T11:30:21;170858.72;;;14.71;48.37
9460;BME280;4768;42.664;23.240;2023-02-18T11:32:51;170916.13;;;14.92;48.32
9460;BME280;4768;42.664;23.240;2023-02-18T11:35:21;170992.44;;;15.20;47.86
9460;BME280;4768;42.664;23.240;2023-02-18T11:37:49;171043.19;;;15.39;47.91
9460;BME280;4768;42.664;23.240;2023-02-18T11:40:21;171084.66;;;15.54;47.26
9460;BME280;4768;42.664;23.240;2023-02-18T11:42:49;171111.34;;;15.64;48.17
9460;BME280;4768;42.664;23.240;2023-02-18T11:45:28;171055.22;;;15.44;47.31
9460;BME280;4768;42.664;23.240;2023-02-18T11:47:58;171096.69;;;15.59;48.12
9460;BME280;4768;42.664;23.240;2023-02-18T11:50:29;171119.38;;;15.67;47.43
9460;BME280;4768;42.664;23.240;2023-02-18T11:52:57;171239.75;;;16.12;47.45
9460;BME280;4768;42.664;23.240;2023-02-18T11:55:25;171085.97;;;15.55;47.02
9460;BME280;4768;42.664;23.240;2023-02-18T11:57:57;171055.22;;;15.44;47.34
9460;BME280;4768;42.664;23.240;2023-02-18T12:00:36;171162.19;;;15.83;48.34
9460;BME280;4768;42.664;23.240;2023-02-18T12:03:07;171231.75;;;16.09;48.32
9460;BME280;4768;42.664;23.240;2023-02-18T12:05:39;171178.22;;;15.89;47.53
9460;BME280;4768;42.664;23.240;2023-02-18T12:08:14;171171.56;;;15.87;48.20
9460;BME280;4768;42.664;23.240;2023-02-18T12:10:46;171156.84;;;15.81;48.14
9460;BME280;4768;42.664;23.240;2023-02-18T12:13:23;171195.63;;;15.96;47.07
9460;BME280;4768;42.664;23.240;2023-02-18T12:16:00;171235.75;;;16.10;48.10
9460;BME280;4768;42.664;23.240;2023-02-18T12:18:40;171186.25;;;15.92;47.23
9460;BME280;4768;42.664;23.240;2023-02-18T12:21:21;171138.09;;;15.74;47.61
9460;BME280;4768;42.664;23.240;2023-02-18T12:23:58;171103.34;;;15.61;48.91
9460;BME280;4768;42.664;23.240;2023-02-18T12:26:36;171139.44;;;15.75;48.93
9460;BME280;4768;42.664;23.240;2023-02-18T12:29:18;171108.72;;;15.63;48.67
9460;BME280;4768;42.664;23.240;2023-02-18T12:31:58;171134.09;;;15.73;47.08
9460;BME280;4768;42.664;23.240;2023-02-18T12:34:41;171115.38;;;15.66;48.20
9460;BME280;4768;42.664;23.240;2023-02-18T12:37:26;171061.91;;;15.46;48.88
9460;BME280;4768;42.664;23.240;2023-02-18T12:40:03;171056.59;;;15.44;48.87
9460;BME280;4768;42.664;23.240;2023-02-18T12:42:45;171011.09;;;15.27;49.48
9460;BME280;4768;42.664;23.240;2023-02-18T12:51:19;170993.75;;;15.21;50.19
9460;BME280;4768;42.664;23.240;2023-02-18T12:53:59;170978.97;;;15.15;50.40
9460;BME280;4768;42.664;23.240;2023-02-18T12:56:51;170999.06;;;15.23;50.70
9460;BME280;4768;42.664;23.240;2023-02-18T12:59:55;171023.13;;;15.32;51.27
9460;BME280;4768;42.664;23.240;2023-02-18T13:02:45;171102.00;;;15.61;51.91
9460;BME280;4768;42.664;23.240;2023-02-18T13:05:24;171128.78;;;15.71;51.05
9460;BME280;4768;42.664;23.240;2023-02-18T13:08:05;171088.66;;;15.56;50.97
9460;BME280;4768;42.664;23.240;2023-02-18T13:10:47;171083.28;;;15.54;51.11
9460;BME280;4768;42.664;23.240;2023-02-18T13:13:18;171091.31;;;15.57;51.43
9460;BME280;4768;42.664;23.240;2023-02-18T13:15:48;171075.25;;;15.51;51.77
9460;BME280;4768;42.664;23.240;2023-02-18T13:18:22;171127.41;;;15.70;51.92
9460;BME280;4768;42.664;23.240;2023-02-18T13:20:51;171089.97;;;15.56;52.49
9460;BME280;4768;42.664;23.240;2023-02-18T13:23:21;171116.72;;;15.66;52.95
9460;BME280;4768;42.664;23.240;2023-02-18T13:25:54;171089.97;;;15.56;52.84
9460;BME280;4768;42.664;23.240;2023-02-18T13:28:25;171091.31;;;15.57;52.97